sensor_id;sensor_type;location;lat;lon;timestamp;pressure;altitude;pressure_sealevel;temperature;humidity
45731;BME280;31440;48.584;13.460;2023-02-18T00:02:42;97474.97;;;6.89;100.00
45731;BME280;31440;48.584;13.460;2023-02-18T00:05:47;97472.06;;;7.12;100.00
45731;BME280;31440;48.584;13.460;2023-02-18T00:08:52;97459.47;;;6.89;100.00
45731;BME280;31440;48.584;13.460;2023-02-18T00:11:57;97482.47;;;7.08;100.00
45731;BME280;31440;48.584;13.460;2023-02-18T00:15:02;97480.00;;;6.97;100.00
45731;BME280;31440;48.584;13.460;2023-02-18T00:18:06;97462.09;;;6.86;100.00
45731;BME280;31440;48.584;13.460;2023-02-18T00:21:11;97497.81;;;7.18;100.00
45731;BME280;31440;48.584;13.460;2023-02-18T00:24:16;97481.59;;;7.09;100.00
45731;BME280;31440;48.584;13.460;2023-02-18T00:27:21;97478.22;;;7.02;100.00
45731;BME280;31440;48.584;13.460;2023-02-18T00:30:25;97499.56;;;7.16;100.00
45731;BME280;31440;48.584;13.460;2023-02-18T00:33:32;97478.09;;;7.13;100.00
45731;BME280;31440;48.584;13.460;2023-02-18T00:36:37;97458.38;;;7.04;100.00
45731;BME280;31440;48.584;13.460;2023-02-18T00:39:42;97492.59;;;7.21;100.00
45731;BME280;31440;48.584;13.460;2023-02-18T00:42:47;97475.38;;;7.19;100.00
45731;BME280;31440;48.584;13.460;2023-02-18T00:45:52;97466.78;;;7.17;100.00
45731;BME280;31440;48.584;13.460;2023-02-18T00:48:57;97496.88;;;7.22;100.00
45731;BME280;31440;48.584;13.460;2023-02-18T00:52:02;97477.72;;;7.34;100.00
45731;BME280;31440;48.584;13.460;2023-02-18T00:55:07;97471.03;;;7.22;100.00
45731;BME280;31440;48.584;13.460;2023-02-18T00:58:13;97487.13;;;7.39;100.00
45731;BME280;31440;48.584;13.460;2023-02-18T01:01:18;97481.69;;;7.55;100.00
45731;BME280;31440;48.584;13.460;2023-02-18T01:04:23;97459.69;;;7.31;100.00
45731;BME280;31440;48.584;13.460;2023-02-18T01:07:28;97458.75;;;7.33;100.00
45731;BME280;31440;48.584;13.460;2023-02-18T01:10:34;97482.50;;;7.60;100.00
45731;BME280;31440;48.584;13.460;2023-02-18T01:13:41;97487.50;;;7.67;100.00
45731;BME280;31440;48.584;13.460;2023-02-18T01:16:45;97473.53;;;7.79;100.00
45731;BME280;31440;48.584;13.460;2023-02-18T01:19:50;97475.31;;;7.75;100.00
45731;BME280;31440;48.584;13.460;2023-02-18T01:22:54;97478.63;;;7.84;100.00
45731;BME280;31440;48.584;13.460;2023-02-18T01:25:59;97487.31;;;7.80;100.00
45731;BME280;31440;48.584;13.460;2023-02-18T01:29:04;97490.63;;;7.86;100.00
45731;BME280;31440;48.584;13.460;2023-02-18T01:32:08;97482.75;;;7.94;100.00
45731;BME280;31440;48.584;13.460;2023-02-18T01:35:15;97488.72;;;7.97;100.00
45731;BME280;31440;48.584;13.460;2023-02-18T01:38:19;97485.38;;;7.91;100.00
45731;BME280;31440;48.584;13.460;2023-02-18T01:41:24;97472.38;;;7.95;100.00
45731;BME280;31440;48.584;13.460;2023-02-18T01:44:32;97446.84;;;7.75;100.00
45731;BME280;31440;48.584;13.460;2023-02-18T01:47:37;97445.81;;;7.84;100.00
45731;BME280;31440;48.584;13.460;2023-02-18T01:50:46;97426.00;;;7.83;100.00
45731;BME280;31440;48.584;13.460;2023-02-18T01:54:01;97431.88;;;7.91;100.00
45731;BME280;31440;48.584;13.460;2023-02-18T01:57:10;97460.84;;;8.10;100.00
45731;BME280;31440;48.584;13.460;2023-02-18T02:00:17;97455.75;;;8.05;100.00
45731;BME280;31440;48.584;13.460;2023-02-18T02:03:25;97440.09;;;8.12;100.00
45731;BME280;31440;48.584;13.460;2023-02-18T02:06:30;97465.09;;;8.14;100.00
45731;BME280;31440;48.584;13.460;2023-02-18T02:09:35;97459.75;;;8.23;100.00
45731;BME280;31440;48.584;13.460;2023-02-18T02:12:59;97444.19;;;8.25;100.00
45731;BME280;31440;48.584;13.460;2023-02-18T02:16:32;97420.38;;;8.04;100.00
45731;BME280;31440;48.584;13.460;2023-02-18T02:20:00;97460.81;;;8.13;100.00
45731;BME280;31440;48.584;13.460;2023-02-18T02:23:39;97449.72;;;8.05;100.00
45731;BME280;31440;48.584;13.460;2023-02-18T02:27:12;97442.59;;;8.18;100.00
45731;BME280;31440;48.584;13.460;2023-02-18T02:30:43;97415.47;;;7.91;100.00
45731;BME280;31440;48.584;13.460;2023-02-18T02:38:09;97451.06;;;8.26;100.00
45731;BME280;31440;48.584;13.460;2023-02-18T02:44:56;97447.78;;;8.19;100.00
45731;BME280;31440;48.584;13.460;2023-02-18T02:51:32;97416.16;;;8.02;100.00
45731;BME280;31440;48.584;13.460;2023-02-18T02:54:39;97448.50;;;8.24;100.00
45731;BME280;31440;48.584;13.460;2023-02-18T02:57:45;97445.41;;;8.05;100.00
45731;BME280;31440;48.584;13.460;2023-02-18T03:01:13;97432.31;;;8.13;100.00
45731;BME280;31440;48.584;13.460;2023-02-18T03:04:35;97432.25;;;8.16;100.00
45731;BME280;31440;48.584;13.460;2023-02-18T03:11:08;97418.03;;;7.92;100.00
45731;BME280;31440;48.584;13.460;2023-02-18T03:14:45;97427.34;;;8.02;100.00
45731;BME280;31440;48.584;13.460;2023-02-18T03:17:54;97432.63;;;7.98;100.00
45731;BME280;31440;48.584;13.460;2023-02-18T03:21:07;97441.16;;;8.03;100.00
45731;BME280;31440;48.584;13.460;2023-02-18T03:24:19;97436.69;;;8.09;100.00
45731;BME280;31440;48.584;13.460;2023-02-18T03:27:32;97422.91;;;8.07;100.00
45731;BME280;31440;48.584;13.460;2023-02-18T03:30:42;97424.75;;;8.02;100.00
45731;BME280;31440;48.584;13.460;2023-02-18T03:34:00;97426.31;;;8.11;100.00
45731;BME280;31440;48.584;13.460;2023-02-18T03:37:07;97413.16;;;8.22;100.00
45731;BME280;31440;48.584;13.460;2023-02-18T03:40:14;97414.06;;;8.21;100.00
45731;BME280;31440;48.584;13.460;2023-02-18T03:43:20;97420.06;;;8.21;100.00
45731;BME280;31440;48.584;13.460;2023-02-18T03:46:29;97417.78;;;8.04;100.00
45731;BME280;31440;48.584;13.460;2023-02-18T03:49:35;97413.25;;;8.17;100.00
45731;BME280;31440;48.584;13.460;2023-02-18T03:52:39;97406.25;;;8.22;100.00
45731;BME280;31440;48.584;13.460;2023-02-18T03:55:44;97421.63;;;8.30;100.00
45731;BME280;31440;48.584;13.460;2023-02-18T03:58:49;97415.53;;;8.32;100.00
45731;BME280;31440;48.584;13.460;2023-02-18T04:01:54;97417.00;;;8.44;100.00
45731;BME280;31440;48.584;13.460;2023-02-18T04:04:58;97423.88;;;8.47;100.00
45731;BME280;31440;48.584;13.460;2023-02-18T04:08:03;97421.72;;;8.25;100.00
45731;BME280;31440;48.584;13.460;2023-02-18T04:11:09;97429.94;;;8.46;100.00
45731;BME280;31440;48.584;13.460;2023-02-18T04:14:13;97385.66;;;8.15;100.00
45731;BME280;31440;48.584;13.460;2023-02-18T04:17:18;97414.47;;;8.41;100.00
45731;BME280;31440;48.584;13.460;2023-02-18T04:20:23;97411.16;;;8.36;100.00
45731;BME280;31440;48.584;13.460;2023-02-18T04:23:27;97396.72;;;8.23;100.00
45731;BME280;31440;48.584;13.460;2023-02-18T04:26:32;97407.81;;;8.29;100.00
45731;BME280;31440;48.584;13.460;2023-02-18T04:29:37;97405.56;;;8.13;100.00
45731;BME280;31440;48.584;13.460;2023-02-18T04:32:42;97424.13;;;8.36;100.00
45731;BME280;31440;48.584;13.460;2023-02-18T04:35:46;97423.69;;;8.13;100.00
45731;BME280;31440;48.584;13.460;2023-02-18T04:38:51;97385.19;;;7.94;100.00
45731;BME280;31440;48.584;13.460;2023-02-18T04:41:55;97414.97;;;8.17;100.00
45731;BME280;31440;48.584;13.460;2023-02-18T04:45:00;97389.81;;;7.80;100.00
45731;BME280;31440;48.584;13.460;2023-02-18T04:48:05;97381.25;;;7.75;100.00
45731;BME280;31440;48.584;13.460;2023-02-18T04:51:09;97405.06;;;7.94;100.00
45731;BME280;31440;48.584;13.460;2023-02-18T04:54:14;97425.66;;;8.01;100.00
45731;BME280;31440;48.584;13.460;2023-02-18T04:57:19;97424.88;;;7.96;100.00
45731;BME280;31440;48.584;13.460;2023-02-18T05:00:23;97393.31;;;7.76;100.00
45731;BME280;31440;48.584;13.460;2023-02-18T05:03:29;97421.50;;;7.91;100.00
45731;BME280;31440;48.584;13.460;2023-02-18T05:06:34;97423.81;;;8.05;100.00
45731;BME280;31440;48.584;13.460;2023-02-18T05:09:38;97417.09;;;7.96;100.00
45731;BME280;31440;48.584;13.460;2023-02-18T05:12:43;97440.66;;;7.84;100.00
45731;BME280;31440;48.584;13.460;2023-02-18T05:15:48;97428.16;;;8.04;100.00
45731;BME280;31440;48.584;13.460;2023-02-18T05:18:52;97423.03;;;8.03;100.00
45731;BME280;31440;48.584;13.460;2023-02-18T05:21:57;97402.25;;;8.04;100.00
45731;BME280;31440;48.584;13.460;2023-02-18T05:25:02;97379.31;;;7.86;100.00
45731;BME280;31440;48.584;13.460;2023-02-18T05:28:06;97385.41;;;7.85;100.00
45731;BME280;31440;48.584;13.460;2023-02-18T05:31:11;97403.75;;;8.19;100.00
45731;BME280;31440;48.584;13.460;2023-02-18T05:34:16;97402.94;;;8.14;100.00
45731;BME280;31440;48.584;13.460;2023-02-18T05:37:21;97404.59;;;8.18;100.00
45731;BME280;31440;48.584;13.460;2023-02-18T05:40:26;97418.66;;;8.05;100.00
45731;BME280;31440;48.584;13.460;2023-02-18T05:43:30;97418.25;;;8.26;100.00
45731;BME280;31440;48.584;13.460;2023-02-18T05:47:03;97385.97;;;7.99;100.00
45731;BME280;31440;48.584;13.460;2023-02-18T05:50:08;97387.53;;;8.06;100.00
45731;BME280;31440;48.584;13.460;2023-02-18T05:53:13;97394.28;;;8.15;100.00
45731;BME280;31440;48.584;13.460;2023-02-18T05:56:20;97421.66;;;8.28;100.00
45731;BME280;31440;48.584;13.460;2023-02-18T05:59:25;97427.03;;;8.21;100.00
45731;BME280;31440;48.584;13.460;2023-02-18T06:02:30;97395.34;;;8.05;100.00
45731;BME280;31440;48.584;13.460;2023-02-18T06:05:34;97433.84;;;8.23;100.00
45731;BME280;31440;48.584;13.460;2023-02-18T06:08:39;97438.13;;;8.26;100.00
45731;BME280;31440;48.584;13.460;2023-02-18T06:11:44;97418.66;;;8.03;100.00
45731;BME280;31440;48.584;13.460;2023-02-18T06:14:49;97422.63;;;8.23;100.00
45731;BME280;31440;48.584;13.460;2023-02-18T06:17:53;97432.59;;;7.99;100.00
45731;BME280;31440;48.584;13.460;2023-02-18T06:20:58;97413.69;;;7.94;100.00
45731;BME280;31440;48.584;13.460;2023-02-18T06:24:03;97454.81;;;8.09;100.00
45731;BME280;31440;48.584;13.460;2023-02-18T06:27:07;97446.53;;;7.91;100.00
45731;BME280;31440;48.584;13.460;2023-02-18T06:30:12;97438.94;;;7.83;100.00
45731;BME280;31440;48.584;13.460;2023-02-18T06:33:17;97436.72;;;8.08;100.00
45731;BME280;31440;48.584;13.460;2023-02-18T06:36:22;97445.00;;;7.82;100.00
45731;BME280;31440;48.584;13.460;2023-02-18T06:39:27;97443.34;;;7.78;100.00
45731;BME280;31440;48.584;13.460;2023-02-18T06:42:32;97450.00;;;7.91;100.00
45731;BME280;31440;48.584;13.460;2023-02-18T06:45:38;97451.03;;;7.83;100.00
45731;BME280;31440;48.584;13.460;2023-02-18T06:48:43;97418.75;;;7.53;100.00
45731;BME280;31440;48.584;13.460;2023-02-18T06:51:47;97441.72;;;7.71;100.00
45731;BME280;31440;48.584;13.460;2023-02-18T06:54:52;97431.75;;;7.50;100.00
45731;BME280;31440;48.584;13.460;2023-02-18T06:57:56;97441.16;;;7.55;100.00
45731;BME280;31440;48.584;13.460;2023-02-18T07:01:01;97415.16;;;7.63;100.00
45731;BME280;31440;48.584;13.460;2023-02-18T07:04:06;97442.75;;;7.64;100.00
45731;BME280;31440;48.584;13.460;2023-02-18T07:07:11;97414.69;;;7.39;100.00
45731;BME280;31440;48.584;13.460;2023-02-18T07:10:15;97437.03;;;7.45;100.00
45731;BME280;31440;48.584;13.460;2023-02-18T07:13:20;97416.13;;;7.56;100.00
45731;BME280;31440;48.584;13.460;2023-02-18T07:16:25;97434.09;;;7.65;100.00
45731;BME280;31440;48.584;13.460;2023-02-18T07:19:30;97422.16;;;7.56;100.00
45731;BME280;31440;48.584;13.460;2023-02-18T07:22:35;97417.75;;;7.63;100.00
45731;BME280;31440;48.584;13.460;2023-02-18T07:25:39;97417.78;;;7.60;100.00
45731;BME280;31440;48.584;13.460;2023-02-18T07:28:44;97432.81;;;7.86;100.00
45731;BME280;31440;48.584;13.460;2023-02-18T07:31:49;97417.28;;;7.86;100.00
45731;BME280;31440;48.584;13.460;2023-02-18T07:34:53;97432.03;;;7.84;100.00
45731;BME280;31440;48.584;13.460;2023-02-18T07:37:58;97407.94;;;7.79;100.00
45731;BME280;31440;48.584;13.460;2023-02-18T07:41:03;97435.03;;;8.05;100.00
45731;BME280;31440;48.584;13.460;2023-02-18T07:44:07;97419.69;;;7.96;100.00
45731;BME280;31440;48.584;13.460;2023-02-18T07:47:14;97428.09;;;8.07;100.00
45731;BME280;31440;48.584;13.460;2023-02-18T07:50:20;97428.78;;;8.19;100.00
45731;BME280;31440;48.584;13.460;2023-02-18T07:53:25;97400.63;;;8.00;100.00
45731;BME280;31440;48.584;13.460;2023-02-18T07:56:29;97421.88;;;8.19;100.00
45731;BME280;31440;48.584;13.460;2023-02-18T07:59:34;97425.13;;;8.27;100.00
45731;BME280;31440;48.584;13.460;2023-02-18T08:02:39;97412.19;;;8.27;100.00
45731;BME280;31440;48.584;13.460;2023-02-18T08:05:44;97426.19;;;8.19;100.00
45731;BME280;31440;48.584;13.460;2023-02-18T08:08:48;97416.47;;;8.28;100.00
45731;BME280;31440;48.584;13.460;2023-02-18T08:11:53;97413.81;;;8.33;100.00
45731;BME280;31440;48.584;13.460;2023-02-18T08:14:57;97388.03;;;8.27;100.00
45731;BME280;31440;48.584;13.460;2023-02-18T08:18:03;97385.41;;;8.28;100.00
45731;BME280;31440;48.584;13.460;2023-02-18T08:21:08;97390.75;;;8.59;100.00
45731;BME280;31440;48.584;13.460;2023-02-18T08:24:12;97397.59;;;8.63;100.00
45731;BME280;31440;48.584;13.460;2023-02-18T08:27:17;97397.72;;;8.57;100.00
45731;BME280;31440;48.584;13.460;2023-02-18T08:30:21;97399.78;;;8.80;100.00
45731;BME280;31440;48.584;13.460;2023-02-18T08:33:26;97388.72;;;8.73;100.00
45731;BME280;31440;48.584;13.460;2023-02-18T08:36:31;97389.47;;;8.78;100.00
45731;BME280;31440;48.584;13.460;2023-02-18T08:39:37;97388.16;;;8.96;100.00
45731;BME280;31440;48.584;13.460;2023-02-18T08:42:43;97351.69;;;8.68;100.00
45731;BME280;31440;48.584;13.460;2023-02-18T08:45:48;97375.88;;;9.04;100.00
45731;BME280;31440;48.584;13.460;2023-02-18T08:48:52;97341.69;;;8.89;100.00
45731;BME280;31440;48.584;13.460;2023-02-18T08:51:57;97379.88;;;9.18;100.00
45731;BME280;31440;48.584;13.460;2023-02-18T08:55:03;97389.22;;;9.25;100.00
45731;BME280;31440;48.584;13.460;2023-02-18T08:58:08;97379.44;;;9.00;100.00
45731;BME280;31440;48.584;13.460;2023-02-18T09:01:13;97384.34;;;9.11;100.00
45731;BME280;31440;48.584;13.460;2023-02-18T09:04:18;97378.88;;;9.23;100.00
45731;BME280;31440;48.584;13.460;2023-02-18T09:07:24;97385.06;;;9.18;100.00
45731;BME280;31440;48.584;13.460;2023-02-18T09:10:29;97379.63;;;9.28;100.00
45731;BME280;31440;48.584;13.460;2023-02-18T09:13:34;97367.16;;;9.08;100.00
45731;BME280;31440;48.584;13.460;2023-02-18T09:16:39;97387.72;;;9.14;100.00
45731;BME280;31440;48.584;13.460;2023-02-18T09:19:44;97372.81;;;9.24;100.00
45731;BME280;31440;48.584;13.460;2023-02-18T09:22:49;97373.78;;;9.19;100.00
45731;BME280;31440;48.584;13.460;2023-02-18T09:25:54;97365.88;;;9.25;100.00
45731;BME280;31440;48.584;13.460;2023-02-18T09:28:58;97347.84;;;9.19;100.00
45731;BME280;31440;48.584;13.460;2023-02-18T09:32:04;97328.88;;;9.17;100.00
45731;BME280;31440;48.584;13.460;2023-02-18T09:35:09;97320.88;;;9.26;100.00
45731;BME280;31440;48.584;13.460;2023-02-18T09:38:16;97363.69;;;9.42;100.00
45731;BME280;31440;48.584;13.460;2023-02-18T09:44:42;97352.94;;;9.56;100.00
45731;BME280;31440;48.584;13.460;2023-02-18T09:47:49;97360.88;;;9.49;100.00
45731;BME280;31440;48.584;13.460;2023-02-18T09:50:54;97333.66;;;9.32;100.00
45731;BME280;31440;48.584;13.460;2023-02-18T09:53:59;97348.25;;;9.68;100.00
45731;BME280;31440;48.584;13.460;2023-02-18T09:57:04;97350.41;;;9.85;100.00
45731;BME280;31440;48.584;13.460;2023-02-18T10:00:32;97336.81;;;9.77;100.00
45731;BME280;31440;48.584;13.460;2023-02-18T10:03:38;97309.47;;;9.64;100.00
45731;BME280;31440;48.584;13.460;2023-02-18T10:06:45;97333.75;;;9.94;100.00
45731;BME280;31440;48.584;13.460;2023-02-18T10:09:53;97320.09;;;9.86;100.00
45731;BME280;31440;48.584;13.460;2023-02-18T10:12:59;97326.13;;;9.88;100.00
45731;BME280;31440;48.584;13.460;2023-02-18T10:16:05;97312.50;;;10.09;100.00
45731;BME280;31440;48.584;13.460;2023-02-18T10:19:22;97321.16;;;10.09;100.00
45731;BME280;31440;48.584;13.460;2023-02-18T10:22:27;97310.97;;;10.31;100.00
45731;BME280;31440;48.584;13.460;2023-02-18T10:25:36;97315.03;;;10.40;100.00
45731;BME280;31440;48.584;13.460;2023-02-18T10:28:45;97302.34;;;10.31;100.00
45731;BME280;31440;48.584;13.460;2023-02-18T10:31:55;97294.41;;;10.35;100.00
45731;BME280;31440;48.584;13.460;2023-02-18T10:35:51;97295.34;;;10.33;100.00
45731;BME280;31440;48.584;13.460;2023-02-18T10:52:43;97272.63;;;10.38;100.00
45731;BME280;31440;48.584;13.460;2023-02-18T10:55:49;97230.84;;;10.18;100.00
45731;BME280;31440;48.584;13.460;2023-02-18T10:59:12;97235.47;;;10.36;100.00
45731;BME280;31440;48.584;13.460;2023-02-18T11:02:18;97256.28;;;10.62;97.93
45731;BME280;31440;48.584;13.460;2023-02-18T11:05:24;97276.66;;;10.48;100.00
45731;BME280;31440;48.584;13.460;2023-02-18T11:08:39;97253.84;;;10.56;99.81
45731;BME280;31440;48.584;13.460;2023-02-18T11:11:45;97252.81;;;10.62;98.21
45731;BME280;31440;48.584;13.460;2023-02-18T11:18:39;97237.63;;;11.01;94.34
45731;BME280;31440;48.584;13.460;2023-02-18T11:21:44;97263.63;;;10.76;93.04
45731;BME280;31440;48.584;13.460;2023-02-18T11:25:25;97230.25;;;10.89;96.12
45731;BME280;31440;48.584;13.460;2023-02-18T11:28:40;97216.13;;;10.96;92.86
45731;BME280;31440;48.584;13.460;2023-02-18T11:31:48;97203.97;;;10.45;93.34
45731;BME280;31440;48.584;13.460;2023-02-18T11:34:54;97181.78;;;10.86;93.80
45731;BME280;31440;48.584;13.460;2023-02-18T11:38:02;97207.84;;;10.84;91.51
45731;BME280;31440;48.584;13.460;2023-02-18T11:41:09;97199.56;;;10.98;93.47
45731;BME280;31440;48.584;13.460;2023-02-18T11:44:57;97198.53;;;10.77;92.05
45731;BME280;31440;48.584;13.460;2023-02-18T11:48:21;97188.50;;;10.92;93.36
45731;BME280;31440;48.584;13.460;2023-02-18T11:51:33;97180.00;;;10.88;92.63
45731;BME280;31440;48.584;13.460;2023-02-18T11:54:41;97172.28;;;10.85;94.82
45731;BME280;31440;48.584;13.460;2023-02-18T11:57:50;97156.19;;;10.99;94.86
45731;BME280;31440;48.584;13.460;2023-02-18T12:00:59;97125.53;;;10.83;93.24
45731;BME280;31440;48.584;13.460;2023-02-18T12:04:12;97154.81;;;10.89;92.52
45731;BME280;31440;48.584;13.460;2023-02-18T12:07:30;97145.69;;;10.77;94.55
45731;BME280;31440;48.584;13.460;2023-02-18T12:10:45;97150.28;;;10.94;91.61
45731;BME280;31440;48.584;13.460;2023-02-18T12:13:52;97153.00;;;10.91;92.29
45731;BME280;31440;48.584;13.460;2023-02-18T12:24:42;97137.03;;;10.76;94.30
45731;BME280;31440;48.584;13.460;2023-02-18T12:28:06;97088.44;;;11.02;93.39
45731;BME280;31440;48.584;13.460;2023-02-18T12:52:01;97091.50;;;11.36;91.87
45731;BME280;31440;48.584;13.460;2023-02-18T13:02:44;97083.44;;;10.96;90.48
45731;BME280;31440;48.584;13.460;2023-02-18T13:13:23;97044.03;;;11.30;87.04
45731;BME280;31440;48.584;13.460;2023-02-18T13:16:30;97058.41;;;11.40;87.16
45731;BME280;31440;48.584;13.460;2023-02-18T13:19:54;97046.19;;;11.42;86.53
45731;BME280;31440;48.584;13.460;2023-02-18T13:22:59;97057.50;;;11.41;87.17
45731;BME280;31440;48.584;13.460;2023-02-18T13:26:08;97040.78;;;11.68;84.83
45731;BME280;31440;48.584;13.460;2023-02-18T13:29:28;97029.44;;;11.47;82.86
45731;BME280;31440;48.584;13.460;2023-02-18T13:33:01;97021.16;;;11.38;82.48
45731;BME280;31440;48.584;13.460;2023-02-18T13:36:25;97070.38;;;11.22;86.30
45731;BME280;31440;48.584;13.460;2023-02-18T13:39:32;97016.50;;;11.24;88.75
45731;BME280;31440;48.584;13.460;2023-02-18T13:42:37;97015.28;;;11.33;83.23
45731;BME280;31440;48.584;13.460;2023-02-18T13:45:42;97029.56;;;11.23;86.68
45731;BME280;31440;48.584;13.460;2023-02-18T13:52:04;97002.31;;;10.86;86.73
45731;BME280;31440;48.584;13.460;2023-02-18T13:55:21;97017.38;;;10.76;89.17
45731;BME280;31440;48.584;13.460;2023-02-18T14:01:53;97001.72;;;11.01;90.64
45731;BME280;31440;48.584;13.460;2023-02-18T14:08:29;97049.94;;;11.10;89.89
45731;BME280;31440;48.584;13.460;2023-02-18T14:18:30;97030.34;;;10.78;96.29
45731;BME280;31440;48.584;13.460;2023-02-18T14:21:37;97034.69;;;10.77;98.39
45731;BME280;31440;48.584;13.460;2023-02-18T14:24:47;97020.78;;;10.78;98.86
45731;BME280;31440;48.584;13.460;2023-02-18T14:27:52;97009.44;;;10.81;94.62
45731;BME280;31440;48.584;13.460;2023-02-18T14:31:01;97039.03;;;10.77;97.31
45731;BME280;31440;48.584;13.460;2023-02-18T14:37:25;97010.38;;;10.78;96.80
45731;BME280;31440;48.584;13.460;2023-02-18T14:50:47;97010.91;;;10.65;95.26
45731;BME280;31440;48.584;13.460;2023-02-18T14:53:54;97005.84;;;10.60;92.70
45731;BME280;31440;48.584;13.460;2023-02-18T14:57:13;96990.84;;;10.68;94.64
45731;BME280;31440;48.584;13.460;2023-02-18T15:00:24;97010.31;;;10.80;93.83
45731;BME280;31440;48.584;13.460;2023-02-18T15:03:30;97021.00;;;10.72;94.06
45731;BME280;31440;48.584;13.460;2023-02-18T15:06:36;97015.31;;;10.86;93.68
45731;BME280;31440;48.584;13.460;2023-02-18T15:09:45;97013.84;;;10.79;94.05
45731;BME280;31440;48.584;13.460;2023-02-18T15:12:51;96992.81;;;10.62;94.29
45731;BME280;31440;48.584;13.460;2023-02-18T15:15:58;96976.81;;;10.49;92.78
45731;BME280;31440;48.584;13.460;2023-02-18T15:19:07;97001.34;;;10.65;94.03
45731;BME280;31440;48.584;13.460;2023-02-18T15:22:24;97006.81;;;10.81;93.22
45731;BME280;31440;48.584;13.460;2023-02-18T15:25:29;97005.16;;;10.55;95.31
45731;BME280;31440;48.584;13.460;2023-02-18T15:28:41;96973.22;;;10.53;94.36
45731;BME280;31440;48.584;13.460;2023-02-18T15:31:47;96972.97;;;10.36;97.31
45731;BME280;31440;48.584;13.460;2023-02-18T15:34:58;97001.50;;;10.61;95.42
45731;BME280;31440;48.584;13.460;2023-02-18T15:38:05;96981.22;;;10.47;95.67
45731;BME280;31440;48.584;13.460;2023-02-18T15:41:14;97006.91;;;10.55;95.00
45731;BME280;31440;48.584;13.460;2023-02-18T15:44:22;97002.47;;;10.58;95.13
45731;BME280;31440;48.584;13.460;2023-02-18T15:47:28;97004.84;;;10.64;92.62
45731;BME280;31440;48.584;13.460;2023-02-18T15:50:37;97001.31;;;10.42;94.46
45731;BME280;31440;48.584;13.460;2023-02-18T15:53:51;96989.28;;;10.39;92.17
45731;BME280;31440;48.584;13.460;2023-02-18T15:57:00;97010.66;;;10.47;91.06
45731;BME280;31440;48.584;13.460;2023-02-18T16:00:19;97003.91;;;10.42;90.51
45731;BME280;31440;48.584;13.460;2023-02-18T16:03:42;96995.50;;;10.35;89.95
45731;BME280;31440;48.584;13.460;2023-02-18T16:06:52;97006.66;;;10.37;92.88
45731;BME280;31440;48.584;13.460;2023-02-18T16:10:23;96992.06;;;10.58;90.41
45731;BME280;31440;48.584;13.460;2023-02-18T16:13:29;96987.06;;;10.54;87.29
45731;BME280;31440;48.584;13.460;2023-02-18T16:16:36;97007.66;;;10.35;89.56
45731;BME280;31440;48.584;13.460;2023-02-18T16:23:34;97003.13;;;10.40;88.68
45731;BME280;31440;48.584;13.460;2023-02-18T16:26:41;97020.84;;;10.29;90.96
45731;BME280;31440;48.584;13.460;2023-02-18T16:29:49;96993.28;;;10.25;92.47
45731;BME280;31440;48.584;13.460;2023-02-18T16:32:55;97001.44;;;10.14;91.06
45731;BME280;31440;48.584;13.460;2023-02-18T16:36:01;96991.63;;;10.22;91.27
45731;BME280;31440;48.584;13.460;2023-02-18T16:39:06;97016.25;;;10.12;91.68
45731;BME280;31440;48.584;13.460;2023-02-18T16:42:12;96990.00;;;9.95;92.13
45731;BME280;31440;48.584;13.460;2023-02-18T16:45:17;97030.28;;;10.31;90.46
45731;BME280;31440;48.584;13.460;2023-02-18T16:48:34;97028.38;;;10.36;88.50
45731;BME280;31440;48.584;13.460;2023-02-18T16:51:41;97024.81;;;10.39;89.48
45731;BME280;31440;48.584;13.460;2023-02-18T16:54:46;97025.09;;;10.31;89.80
45731;BME280;31440;48.584;13.460;2023-02-18T16:57:56;97011.94;;;10.11;89.57
45731;BME280;31440;48.584;13.460;2023-02-18T17:01:01;97039.81;;;10.06;91.80
45731;BME280;31440;48.584;13.460;2023-02-18T17:04:08;97049.97;;;10.13;89.50
45731;BME280;31440;48.584;13.460;2023-02-18T17:07:13;97064.31;;;10.24;88.31
45731;BME280;31440;48.584;13.460;2023-02-18T17:10:18;97070.47;;;10.21;90.41
45731;BME280;31440;48.584;13.460;2023-02-18T17:13:26;97076.91;;;10.11;91.18
45731;BME280;31440;48.584;13.460;2023-02-18T17:16:31;97079.97;;;10.22;90.27
45731;BME280;31440;48.584;13.460;2023-02-18T17:19:36;97088.09;;;10.13;91.70
45731;BME280;31440;48.584;13.460;2023-02-18T17:22:41;97059.47;;;10.14;89.23
45731;BME280;31440;48.584;13.460;2023-02-18T17:29:35;97080.13;;;9.91;93.00
45731;BME280;31440;48.584;13.460;2023-02-18T17:32:41;97091.78;;;10.06;93.81
45731;BME280;31440;48.584;13.460;2023-02-18T17:35:46;97098.13;;;9.97;94.49
45731;BME280;31440;48.584;13.460;2023-02-18T17:38:51;97100.47;;;9.78;95.74
45731;BME280;31440;48.584;13.460;2023-02-18T17:41:55;97115.16;;;10.06;95.45
45731;BME280;31440;48.584;13.460;2023-02-18T17:45:00;97091.63;;;9.84;95.29
45731;BME280;31440;48.584;13.460;2023-02-18T17:48:06;97125.91;;;9.95;96.16
45731;BME280;31440;48.584;13.460;2023-02-18T17:51:22;97108.91;;;10.11;95.67
45731;BME280;31440;48.584;13.460;2023-02-18T17:54:27;97086.03;;;9.68;100.00
45731;BME280;31440;48.584;13.460;2023-02-18T17:57:32;97104.91;;;9.73;100.00
45731;BME280;31440;48.584;13.460;2023-02-18T18:00:49;97111.19;;;9.66;100.00
45731;BME280;31440;48.584;13.460;2023-02-18T18:03:54;97131.94;;;9.38;100.00
45731;BME280;31440;48.584;13.460;2023-02-18T18:06:59;97145.91;;;9.34;100.00
45731;BME280;31440;48.584;13.460;2023-02-18T18:10:04;97134.94;;;9.25;100.00
45731;BME280;31440;48.584;13.460;2023-02-18T18:13:16;97117.94;;;9.14;100.00
45731;BME280;31440;48.584;13.460;2023-02-18T18:16:21;97124.94;;;9.11;100.00
45731;BME280;31440;48.584;13.460;2023-02-18T18:19:26;97139.81;;;9.35;100.00
45731;BME280;31440;48.584;13.460;2023-02-18T18:22:30;97142.94;;;9.17;100.00